sensor_id;sensor_type;location;lat;lon;timestamp;pressure;altitude;pressure_sealevel;temperature;humidity
7834;BME280;3962;42.696;23.354;2023-03-03T00:01:10;95241.09;;;4.58;91.74
7834;BME280;3962;42.696;23.354;2023-03-03T00:03:37;95235.94;;;4.57;91.55
7834;BME280;3962;42.696;23.354;2023-03-03T00:06:08;95239.53;;;4.56;91.74
7834;BME280;3962;42.696;23.354;2023-03-03T00:08:35;95239.41;;;4.57;91.64
7834;BME280;3962;42.696;23.354;2023-03-03T00:11:02;95231.91;;;4.64;92.26
7834;BME280;3962;42.696;23.354;2023-03-03T00:13:32;95235.16;;;4.67;91.98
7834;BME280;3962;42.696;23.354;2023-03-03T00:16:13;95230.94;;;4.65;91.74
7834;BME280;3962;42.696;23.354;2023-03-03T00:18:42;95234.63;;;4.62;92.34
7834;BME280;3962;42.696;23.354;2023-03-03T00:21:22;95232.47;;;4.56;91.64
7834;BME280;3962;42.696;23.354;2023-03-03T00:23:51;95229.09;;;4.54;92.58
7834;BME280;3962;42.696;23.354;2023-03-03T00:26:21;95228.03;;;4.57;92.22
7834;BME280;3962;42.696;23.354;2023-03-03T00:28:49;95229.84;;;4.56;92.55
7834;BME280;3962;42.696;23.354;2023-03-03T00:31:18;95225.00;;;4.50;92.08
7834;BME280;3962;42.696;23.354;2023-03-03T00:33:48;95219.03;;;4.48;92.72
7834;BME280;3962;42.696;23.354;2023-03-03T00:36:35;95225.13;;;4.49;92.85
7834;BME280;3962;42.696;23.354;2023-03-03T00:39:17;95219.94;;;4.47;93.08
7834;BME280;3962;42.696;23.354;2023-03-03T00:41:44;95210.72;;;4.42;93.48
7834;BME280;3962;42.696;23.354;2023-03-03T00:44:42;95209.41;;;4.47;93.59
7834;BME280;3962;42.696;23.354;2023-03-03T00:47:17;95206.56;;;4.50;93.57
7834;BME280;3962;42.696;23.354;2023-03-03T00:49:48;95197.09;;;4.48;93.65
7834;BME280;3962;42.696;23.354;2023-03-03T00:52:18;95194.13;;;4.52;93.37
7834;BME280;3962;42.696;23.354;2023-03-03T00:54:45;95190.75;;;4.50;93.18
7834;BME280;3962;42.696;23.354;2023-03-03T00:57:12;95185.84;;;4.46;93.69
7834;BME280;3962;42.696;23.354;2023-03-03T00:59:39;95180.34;;;4.49;93.89
7834;BME280;3962;42.696;23.354;2023-03-03T01:02:06;95182.25;;;4.47;94.27
7834;BME280;3962;42.696;23.354;2023-03-03T01:04:33;95177.69;;;4.49;93.32
7834;BME280;3962;42.696;23.354;2023-03-03T01:07:00;95165.59;;;4.46;93.21
7834;BME280;3962;42.696;23.354;2023-03-03T01:09:28;95178.66;;;4.48;93.71
7834;BME280;3962;42.696;23.354;2023-03-03T01:11:55;95178.31;;;4.52;93.74
7834;BME280;3962;42.696;23.354;2023-03-03T01:14:22;95170.16;;;4.55;93.60
7834;BME280;3962;42.696;23.354;2023-03-03T01:16:49;95171.03;;;4.56;93.38
7834;BME280;3962;42.696;23.354;2023-03-03T01:19:15;95167.06;;;4.50;93.21
7834;BME280;3962;42.696;23.354;2023-03-03T01:21:42;95167.66;;;4.54;93.75
7834;BME280;3962;42.696;23.354;2023-03-03T01:24:09;95167.59;;;4.43;93.75
7834;BME280;3962;42.696;23.354;2023-03-03T01:26:37;95171.00;;;4.45;93.89
7834;BME280;3962;42.696;23.354;2023-03-03T01:29:04;95174.34;;;4.47;93.64
7834;BME280;3962;42.696;23.354;2023-03-03T01:31:31;95160.44;;;4.45;93.64
7834;BME280;3962;42.696;23.354;2023-03-03T01:33:57;95164.00;;;4.44;94.08
7834;BME280;3962;42.696;23.354;2023-03-03T01:36:24;95165.03;;;4.54;94.07
7834;BME280;3962;42.696;23.354;2023-03-03T01:38:52;95161.81;;;4.61;93.19
7834;BME280;3962;42.696;23.354;2023-03-03T01:41:19;95156.78;;;4.58;93.24
7834;BME280;3962;42.696;23.354;2023-03-03T01:43:48;95159.50;;;4.46;92.83
7834;BME280;3962;42.696;23.354;2023-03-03T01:46:45;95157.91;;;4.43;93.13
7834;BME280;3962;42.696;23.354;2023-03-03T01:49:16;95155.84;;;4.36;93.25
7834;BME280;3962;42.696;23.354;2023-03-03T01:51:48;95155.50;;;4.40;93.53
7834;BME280;3962;42.696;23.354;2023-03-03T01:54:20;95159.50;;;4.46;93.41
7834;BME280;3962;42.696;23.354;2023-03-03T01:56:52;95153.63;;;4.42;93.37
7834;BME280;3962;42.696;23.354;2023-03-03T01:59:25;95152.66;;;4.43;93.05
7834;BME280;3962;42.696;23.354;2023-03-03T02:01:54;95148.19;;;4.33;93.48
7834;BME280;3962;42.696;23.354;2023-03-03T02:04:21;95150.44;;;4.26;93.54
7834;BME280;3962;42.696;23.354;2023-03-03T02:06:52;95146.78;;;4.16;94.03
7834;BME280;3962;42.696;23.354;2023-03-03T02:09:26;95139.84;;;4.15;94.13
7834;BME280;3962;42.696;23.354;2023-03-03T02:11:58;95143.84;;;4.21;94.20
7834;BME280;3962;42.696;23.354;2023-03-03T02:14:28;95153.28;;;4.23;93.57
7834;BME280;3962;42.696;23.354;2023-03-03T02:16:55;95153.50;;;4.20;93.29
7834;BME280;3962;42.696;23.354;2023-03-03T02:19:30;95150.63;;;4.23;93.66
7834;BME280;3962;42.696;23.354;2023-03-03T02:21:59;95144.56;;;4.23;93.52
7834;BME280;3962;42.696;23.354;2023-03-03T02:24:30;95143.69;;;4.22;93.31
7834;BME280;3962;42.696;23.354;2023-03-03T02:27:01;95155.09;;;4.23;93.36
7834;BME280;3962;42.696;23.354;2023-03-03T02:29:28;95151.22;;;4.16;93.60
7834;BME280;3962;42.696;23.354;2023-03-03T02:31:55;95150.16;;;4.18;94.20
7834;BME280;3962;42.696;23.354;2023-03-03T02:34:22;95150.63;;;4.23;93.70
7834;BME280;3962;42.696;23.354;2023-03-03T02:36:49;95155.13;;;4.34;93.84
7834;BME280;3962;42.696;23.354;2023-03-03T02:39:18;95146.78;;;4.40;93.96
7834;BME280;3962;42.696;23.354;2023-03-03T02:41:48;95139.09;;;4.37;92.82
7834;BME280;3962;42.696;23.354;2023-03-03T02:44:19;95147.94;;;4.36;93.57
7834;BME280;3962;42.696;23.354;2023-03-03T02:46:47;95156.78;;;4.35;93.76
7834;BME280;3962;42.696;23.354;2023-03-03T02:49:16;95146.66;;;4.41;93.33
7834;BME280;3962;42.696;23.354;2023-03-03T02:51:44;95152.75;;;4.42;93.17
7834;BME280;3962;42.696;23.354;2023-03-03T02:54:12;95150.38;;;4.39;93.15
7834;BME280;3962;42.696;23.354;2023-03-03T02:56:39;95146.78;;;4.40;92.79
7834;BME280;3962;42.696;23.354;2023-03-03T02:59:06;95147.00;;;4.37;92.99
7834;BME280;3962;42.696;23.354;2023-03-03T03:01:35;95143.75;;;4.33;92.72
7834;BME280;3962;42.696;23.354;2023-03-03T03:04:04;95132.13;;;4.36;92.85
7834;BME280;3962;42.696;23.354;2023-03-03T03:06:32;95139.56;;;4.31;92.93
7834;BME280;3962;42.696;23.354;2023-03-03T03:08:59;95132.72;;;4.28;93.28
7834;BME280;3962;42.696;23.354;2023-03-03T03:11:26;95137.03;;;4.29;93.44
7834;BME280;3962;42.696;23.354;2023-03-03T03:13:52;95142.06;;;4.32;93.31
7834;BME280;3962;42.696;23.354;2023-03-03T03:16:19;95139.91;;;4.26;93.19
7834;BME280;3962;42.696;23.354;2023-03-03T03:18:47;95134.97;;;4.22;93.31
7834;BME280;3962;42.696;23.354;2023-03-03T03:21:15;95137.38;;;4.25;93.02
7834;BME280;3962;42.696;23.354;2023-03-03T03:23:42;95138.31;;;4.24;93.33
7834;BME280;3962;42.696;23.354;2023-03-03T03:26:09;95138.44;;;4.22;93.50
7834;BME280;3962;42.696;23.354;2023-03-03T03:28:36;95132.34;;;4.22;93.97
7834;BME280;3962;42.696;23.354;2023-03-03T03:31:04;95131.72;;;4.18;93.00
7834;BME280;3962;42.696;23.354;2023-03-03T03:33:31;95133.50;;;4.18;93.83
7834;BME280;3962;42.696;23.354;2023-03-03T03:36:00;95131.16;;;4.26;93.98
7834;BME280;3962;42.696;23.354;2023-03-03T03:38:27;95127.97;;;4.33;94.12
7834;BME280;3962;42.696;23.354;2023-03-03T03:40:56;95130.81;;;4.30;93.56
7834;BME280;3962;42.696;23.354;2023-03-03T03:43:23;95122.69;;;4.33;93.80
7834;BME280;3962;42.696;23.354;2023-03-03T03:45:49;95121.22;;;4.29;93.20
7834;BME280;3962;42.696;23.354;2023-03-03T03:48:17;95116.56;;;4.33;93.42
7834;BME280;3962;42.696;23.354;2023-03-03T03:50:44;95118.59;;;4.29;93.04
7834;BME280;3962;42.696;23.354;2023-03-03T03:53:13;95114.66;;;4.35;93.39
7834;BME280;3962;42.696;23.354;2023-03-03T03:55:40;95113.94;;;4.33;93.57
7834;BME280;3962;42.696;23.354;2023-03-03T03:58:07;95110.94;;;4.26;93.86
7834;BME280;3962;42.696;23.354;2023-03-03T04:00:34;95123.50;;;4.23;94.28
7834;BME280;3962;42.696;23.354;2023-03-03T04:03:01;95115.13;;;4.29;94.59
7834;BME280;3962;42.696;23.354;2023-03-03T04:05:27;95114.91;;;4.32;94.81
7834;BME280;3962;42.696;23.354;2023-03-03T04:07:54;95110.34;;;4.34;94.82
7834;BME280;3962;42.696;23.354;2023-03-03T04:10:22;95106.66;;;4.36;94.70
7834;BME280;3962;42.696;23.354;2023-03-03T04:12:49;95108.91;;;4.30;95.23
7834;BME280;3962;42.696;23.354;2023-03-03T04:15:16;95113.31;;;4.29;95.74
7834;BME280;3962;42.696;23.354;2023-03-03T04:17:43;95101.38;;;4.36;96.11
7834;BME280;3962;42.696;23.354;2023-03-03T04:20:12;95109.63;;;4.32;95.64
7834;BME280;3962;42.696;23.354;2023-03-03T04:22:41;95104.72;;;4.27;96.21
7834;BME280;3962;42.696;23.354;2023-03-03T04:25:09;95106.63;;;4.25;96.74
7834;BME280;3962;42.696;23.354;2023-03-03T04:27:40;95104.91;;;4.24;96.28
7834;BME280;3962;42.696;23.354;2023-03-03T04:30:09;95108.16;;;4.28;96.08
7834;BME280;3962;42.696;23.354;2023-03-03T04:32:36;95109.47;;;4.22;96.16
7834;BME280;3962;42.696;23.354;2023-03-03T04:35:03;95100.34;;;4.15;96.79
7834;BME280;3962;42.696;23.354;2023-03-03T04:37:30;95102.34;;;4.12;97.42
7834;BME280;3962;42.696;23.354;2023-03-03T04:39:56;95103.44;;;4.09;97.88
7834;BME280;3962;42.696;23.354;2023-03-03T04:42:23;95105.94;;;4.11;97.70
7834;BME280;3962;42.696;23.354;2023-03-03T04:44:54;95105.13;;;4.10;97.58
7834;BME280;3962;42.696;23.354;2023-03-03T04:47:20;95106.66;;;4.13;97.87
7834;BME280;3962;42.696;23.354;2023-03-03T04:49:47;95101.41;;;4.13;97.59
7834;BME280;3962;42.696;23.354;2023-03-03T04:52:14;95105.50;;;4.17;98.04
7834;BME280;3962;42.696;23.354;2023-03-03T04:54:41;95104.78;;;4.15;97.74
7834;BME280;3962;42.696;23.354;2023-03-03T04:57:07;95107.63;;;4.12;97.88
7834;BME280;3962;42.696;23.354;2023-03-03T04:59:35;95102.34;;;4.12;98.03
7834;BME280;3962;42.696;23.354;2023-03-03T05:02:03;95101.63;;;4.10;98.00
7834;BME280;3962;42.696;23.354;2023-03-03T05:04:30;95108.84;;;4.19;97.87
7834;BME280;3962;42.696;23.354;2023-03-03T05:06:57;95108.41;;;4.25;97.74
7834;BME280;3962;42.696;23.354;2023-03-03T05:09:24;95110.94;;;4.26;98.00
7834;BME280;3962;42.696;23.354;2023-03-03T05:11:51;95112.97;;;4.34;98.01
7834;BME280;3962;42.696;23.354;2023-03-03T05:14:18;95113.94;;;4.33;98.02
7834;BME280;3962;42.696;23.354;2023-03-03T05:16:45;95115.00;;;4.30;97.45
7834;BME280;3962;42.696;23.354;2023-03-03T05:19:13;95118.59;;;4.29;97.77
7834;BME280;3962;42.696;23.354;2023-03-03T05:21:40;95117.78;;;4.29;97.56
7834;BME280;3962;42.696;23.354;2023-03-03T05:24:07;95117.03;;;4.27;97.40
7834;BME280;3962;42.696;23.354;2023-03-03T05:26:34;95121.13;;;4.31;97.74
7834;BME280;3962;42.696;23.354;2023-03-03T05:29:01;95123.16;;;4.27;97.51
7834;BME280;3962;42.696;23.354;2023-03-03T05:31:28;95118.94;;;4.25;97.39
7834;BME280;3962;42.696;23.354;2023-03-03T05:33:55;95120.97;;;4.21;98.24
7834;BME280;3962;42.696;23.354;2023-03-03T05:36:23;95117.88;;;4.27;98.08
7834;BME280;3962;42.696;23.354;2023-03-03T05:38:50;95127.00;;;4.34;97.87
7834;BME280;3962;42.696;23.354;2023-03-03T05:41:17;95120.88;;;4.34;97.84
7834;BME280;3962;42.696;23.354;2023-03-03T05:43:44;95121.88;;;4.44;97.45
7834;BME280;3962;42.696;23.354;2023-03-03T05:46:11;95122.47;;;4.47;97.14
7834;BME280;3962;42.696;23.354;2023-03-03T05:48:37;95134.03;;;4.57;96.89
7834;BME280;3962;42.696;23.354;2023-03-03T05:51:04;95137.13;;;4.62;97.34
7834;BME280;3962;42.696;23.354;2023-03-03T05:53:33;95127.34;;;4.64;96.95
7834;BME280;3962;42.696;23.354;2023-03-03T05:56:00;95127.72;;;4.71;96.89
7834;BME280;3962;42.696;23.354;2023-03-03T05:58:27;95134.66;;;4.72;96.94
7834;BME280;3962;42.696;23.354;2023-03-03T06:00:54;95127.38;;;4.75;96.97
7834;BME280;3962;42.696;23.354;2023-03-03T06:03:21;95131.44;;;4.79;96.90
7834;BME280;3962;42.696;23.354;2023-03-03T06:05:48;95130.34;;;4.71;95.50
7834;BME280;3962;42.696;23.354;2023-03-03T06:08:15;95127.00;;;4.69;95.73
7834;BME280;3962;42.696;23.354;2023-03-03T06:10:43;95126.50;;;4.75;96.26
7834;BME280;3962;42.696;23.354;2023-03-03T06:13:10;95128.53;;;4.71;96.06
7834;BME280;3962;42.696;23.354;2023-03-03T06:15:37;95128.94;;;4.78;96.37
7834;BME280;3962;42.696;23.354;2023-03-03T06:18:04;95131.22;;;4.82;97.23
7834;BME280;3962;42.696;23.354;2023-03-03T06:20:30;95132.75;;;4.74;95.90
7834;BME280;3962;42.696;23.354;2023-03-03T06:22:58;95136.69;;;4.79;96.72
7834;BME280;3962;42.696;23.354;2023-03-03T06:25:24;95139.59;;;4.87;96.58
7834;BME280;3962;42.696;23.354;2023-03-03T06:27:53;95135.97;;;4.77;95.98
7834;BME280;3962;42.696;23.354;2023-03-03T06:30:20;95134.75;;;4.70;96.49
7834;BME280;3962;42.696;23.354;2023-03-03T06:32:46;95138.28;;;4.82;97.28
7834;BME280;3962;42.696;23.354;2023-03-03T06:35:13;95139.81;;;4.73;96.54
7834;BME280;3962;42.696;23.354;2023-03-03T06:37:40;95132.03;;;4.72;96.85
7834;BME280;3962;42.696;23.354;2023-03-03T06:40:08;95140.91;;;4.82;96.71
7834;BME280;3962;42.696;23.354;2023-03-03T06:42:35;95139.56;;;4.76;97.13
7834;BME280;3962;42.696;23.354;2023-03-03T06:45:04;95140.56;;;4.86;96.76
7834;BME280;3962;42.696;23.354;2023-03-03T06:47:31;95137.69;;;4.89;96.02
7834;BME280;3962;42.696;23.354;2023-03-03T06:49:58;95149.56;;;4.95;95.79
7834;BME280;3962;42.696;23.354;2023-03-03T06:52:26;95132.91;;;4.94;96.21
7834;BME280;3962;42.696;23.354;2023-03-03T06:54:54;95139.63;;;4.98;95.63
7834;BME280;3962;42.696;23.354;2023-03-03T06:57:25;95147.28;;;4.90;95.32
7834;BME280;3962;42.696;23.354;2023-03-03T06:59:54;95145.81;;;4.86;94.76
7834;BME280;3962;42.696;23.354;2023-03-03T07:02:22;95150.75;;;4.91;95.51
7834;BME280;3962;42.696;23.354;2023-03-03T07:04:49;95147.06;;;5.04;95.95
7834;BME280;3962;42.696;23.354;2023-03-03T07:07:18;95146.22;;;5.15;96.22
7834;BME280;3962;42.696;23.354;2023-03-03T07:09:47;95153.69;;;5.65;97.36
7834;BME280;3962;42.696;23.354;2023-03-03T07:12:15;95152.38;;;5.59;94.34
7834;BME280;3962;42.696;23.354;2023-03-03T07:14:45;95155.13;;;5.58;92.51
7834;BME280;3962;42.696;23.354;2023-03-03T07:17:15;95152.16;;;5.51;92.31
7834;BME280;3962;42.696;23.354;2023-03-03T07:19:45;95152.50;;;5.58;92.91
7834;BME280;3962;42.696;23.354;2023-03-03T07:22:15;95156.81;;;5.59;94.04
7834;BME280;3962;42.696;23.354;2023-03-03T07:24:44;95154.53;;;5.43;92.60
7834;BME280;3962;42.696;23.354;2023-03-03T07:27:14;95150.91;;;5.33;91.13
7834;BME280;3962;42.696;23.354;2023-03-03T07:29:45;95148.66;;;5.40;91.89
7834;BME280;3962;42.696;23.354;2023-03-03T07:32:21;95145.06;;;5.41;91.88
7834;BME280;3962;42.696;23.354;2023-03-03T07:34:52;95150.94;;;5.44;92.99
7834;BME280;3962;42.696;23.354;2023-03-03T07:37:28;95140.13;;;5.47;93.41
7834;BME280;3962;42.696;23.354;2023-03-03T07:39:56;95139.78;;;5.41;92.28
7834;BME280;3962;42.696;23.354;2023-03-03T07:42:23;95145.41;;;5.47;91.81
7834;BME280;3962;42.696;23.354;2023-03-03T07:44:54;95147.34;;;5.45;91.01
7834;BME280;3962;42.696;23.354;2023-03-03T07:47:23;95148.53;;;5.41;90.53
7834;BME280;3962;42.696;23.354;2023-03-03T07:49:54;95148.06;;;5.36;90.43
7834;BME280;3962;42.696;23.354;2023-03-03T07:52:37;95139.41;;;5.34;90.93
7834;BME280;3962;42.696;23.354;2023-03-03T07:55:23;95136.66;;;5.36;92.30
7834;BME280;3962;42.696;23.354;2023-03-03T07:57:53;95135.44;;;5.29;91.98
7834;BME280;3962;42.696;23.354;2023-03-03T08:03:37;95139.66;;;5.31;90.90
7834;BME280;3962;42.696;23.354;2023-03-03T08:06:35;95129.69;;;5.35;91.32
7834;BME280;3962;42.696;23.354;2023-03-03T08:12:30;95135.44;;;5.62;91.17
7834;BME280;3962;42.696;23.354;2023-03-03T08:15:14;95134.59;;;5.50;90.18
7834;BME280;3962;42.696;23.354;2023-03-03T08:17:43;95130.06;;;5.52;90.39
7834;BME280;3962;42.696;23.354;2023-03-03T08:23:19;95134.38;;;5.53;90.86
7834;BME280;3962;42.696;23.354;2023-03-03T08:25:47;95124.91;;;5.51;90.38
7834;BME280;3962;42.696;23.354;2023-03-03T08:28:15;95126.81;;;5.38;90.65
7834;BME280;3962;42.696;23.354;2023-03-03T08:30:42;95124.91;;;5.40;91.49
7834;BME280;3962;42.696;23.354;2023-03-03T08:33:09;95123.59;;;5.45;90.79
7834;BME280;3962;42.696;23.354;2023-03-03T08:35:37;95120.22;;;5.54;90.03
7834;BME280;3962;42.696;23.354;2023-03-03T08:38:04;95120.13;;;5.56;90.60
7834;BME280;3962;42.696;23.354;2023-03-03T08:40:33;95118.56;;;5.53;90.54
7834;BME280;3962;42.696;23.354;2023-03-03T08:43:01;95127.44;;;5.52;90.96
7834;BME280;3962;42.696;23.354;2023-03-03T08:45:28;95117.47;;;5.56;90.31
7834;BME280;3962;42.696;23.354;2023-03-03T08:47:56;95116.97;;;5.62;90.79
7834;BME280;3962;42.696;23.354;2023-03-03T08:50:24;95116.97;;;5.62;89.79
7834;BME280;3962;42.696;23.354;2023-03-03T08:52:51;95119.84;;;5.70;89.26
7834;BME280;3962;42.696;23.354;2023-03-03T08:55:18;95121.03;;;5.77;91.38
7834;BME280;3962;42.696;23.354;2023-03-03T08:57:46;95128.13;;;5.87;91.43
7834;BME280;3962;42.696;23.354;2023-03-03T09:00:15;95125.16;;;5.81;89.72
7834;BME280;3962;42.696;23.354;2023-03-03T09:02:43;95126.34;;;5.88;89.24
7834;BME280;3962;42.696;23.354;2023-03-03T09:05:10;95132.44;;;5.99;89.04
7834;BME280;3962;42.696;23.354;2023-03-03T09:07:38;95125.97;;;5.92;89.41
7834;BME280;3962;42.696;23.354;2023-03-03T09:10:06;95124.50;;;5.88;88.63
7834;BME280;3962;42.696;23.354;2023-03-03T09:12:35;95126.66;;;5.94;89.59
7834;BME280;3962;42.696;23.354;2023-03-03T09:15:15;95119.00;;;5.91;87.05
7834;BME280;3962;42.696;23.354;2023-03-03T09:17:44;95120.75;;;6.02;88.59
7834;BME280;3962;42.696;23.354;2023-03-03T09:20:30;95123.28;;;6.14;88.13
7834;BME280;3962;42.696;23.354;2023-03-03T09:22:59;95116.91;;;6.06;87.49
7834;BME280;3962;42.696;23.354;2023-03-03T09:25:42;95107.63;;;6.22;87.17
7834;BME280;3962;42.696;23.354;2023-03-03T09:28:20;95110.22;;;6.33;87.02
7834;BME280;3962;42.696;23.354;2023-03-03T09:30:51;95123.31;;;6.35;87.16
7834;BME280;3962;42.696;23.354;2023-03-03T09:33:23;95117.88;;;6.36;88.85
7834;BME280;3962;42.696;23.354;2023-03-03T09:35:59;95122.84;;;6.30;87.02
7834;BME280;3962;42.696;23.354;2023-03-03T09:38:29;95121.66;;;6.34;87.34
7834;BME280;3962;42.696;23.354;2023-03-03T09:41:22;95114.03;;;6.40;87.12
7834;BME280;3962;42.696;23.354;2023-03-03T09:44:08;95118.81;;;6.46;86.42
7834;BME280;3962;42.696;23.354;2023-03-03T09:46:43;95123.09;;;6.58;87.29
7834;BME280;3962;42.696;23.354;2023-03-03T09:49:19;95099.16;;;6.39;86.09
7834;BME280;3962;42.696;23.354;2023-03-03T09:52:06;95123.78;;;6.60;86.27
7834;BME280;3962;42.696;23.354;2023-03-03T09:54:53;95121.03;;;6.82;86.06
7834;BME280;3962;42.696;23.354;2023-03-03T09:57:28;95119.94;;;6.85;85.75
7834;BME280;3962;42.696;23.354;2023-03-03T10:00:17;95120.41;;;6.90;85.71
7834;BME280;3962;42.696;23.354;2023-03-03T10:03:04;95108.28;;;6.87;84.65
7834;BME280;3962;42.696;23.354;2023-03-03T10:05:48;95113.28;;;7.10;85.06
7834;BME280;3962;42.696;23.354;2023-03-03T10:08:35;95117.78;;;7.19;84.67
7834;BME280;3962;42.696;23.354;2023-03-03T10:11:14;95114.25;;;7.09;82.92
7834;BME280;3962;42.696;23.354;2023-03-03T10:14:00;95112.75;;;7.16;82.46
7834;BME280;3962;42.696;23.354;2023-03-03T10:16:48;95115.00;;;7.81;86.09
7834;BME280;3962;42.696;23.354;2023-03-03T10:19:32;95104.59;;;7.59;80.89
7834;BME280;3962;42.696;23.354;2023-03-03T10:22:11;95109.09;;;7.68;81.19
7834;BME280;3962;42.696;23.354;2023-03-03T10:24:42;95106.56;;;7.57;81.04
7834;BME280;3962;42.696;23.354;2023-03-03T10:27:25;95094.25;;;7.46;81.21
7834;BME280;3962;42.696;23.354;2023-03-03T10:30:03;95103.81;;;7.38;80.89
7834;BME280;3962;42.696;23.354;2023-03-03T10:32:41;95099.25;;;7.19;80.32
7834;BME280;3962;42.696;23.354;2023-03-03T10:35:24;95091.47;;;7.18;80.98
7834;BME280;3962;42.696;23.354;2023-03-03T10:38:13;95096.44;;;7.11;82.23
7834;BME280;3962;42.696;23.354;2023-03-03T10:40:46;95088.13;;;7.16;81.69
7834;BME280;3962;42.696;23.354;2023-03-03T10:43:51;95095.78;;;7.19;82.50
7834;BME280;3962;42.696;23.354;2023-03-03T10:49:21;95084.69;;;7.25;83.27
7834;BME280;3962;42.696;23.354;2023-03-03T10:52:05;95079.53;;;7.23;83.61
7834;BME280;3962;42.696;23.354;2023-03-03T10:54:52;95089.66;;;7.18;83.18
7834;BME280;3962;42.696;23.354;2023-03-03T10:57:25;95081.34;;;7.03;83.14
7834;BME280;3962;42.696;23.354;2023-03-03T11:02:51;95076.47;;;7.28;84.59
7834;BME280;3962;42.696;23.354;2023-03-03T11:05:34;95079.56;;;7.33;83.91
7834;BME280;3962;42.696;23.354;2023-03-03T11:08:12;95073.69;;;7.29;83.59
7834;BME280;3962;42.696;23.354;2023-03-03T11:10:51;95072.72;;;7.30;83.90
7834;BME280;3962;42.696;23.354;2023-03-03T11:13:25;95071.63;;;7.33;83.64
7834;BME280;3962;42.696;23.354;2023-03-03T11:16:05;95068.81;;;7.25;83.32
7834;BME280;3962;42.696;23.354;2023-03-03T11:18:51;95059.44;;;7.21;82.64
7834;BME280;3962;42.696;23.354;2023-03-03T11:21:32;95062.38;;;7.27;83.37
7834;BME280;3962;42.696;23.354;2023-03-03T11:24:13;95055.75;;;7.33;83.05
7834;BME280;3962;42.696;23.354;2023-03-03T11:26:59;95050.06;;;7.37;82.63
7834;BME280;3962;42.696;23.354;2023-03-03T11:30:02;95048.38;;;7.36;82.80
7834;BME280;3962;42.696;23.354;2023-03-03T11:32:39;95047.25;;;7.39;83.51
7834;BME280;3962;42.696;23.354;2023-03-03T11:35:21;95058.53;;;7.31;83.44
7834;BME280;3962;42.696;23.354;2023-03-03T11:37:56;95054.59;;;7.26;83.66
7834;BME280;3962;42.696;23.354;2023-03-03T11:40:31;95055.94;;;7.11;85.56
7834;BME280;3962;42.696;23.354;2023-03-03T11:43:07;95058.06;;;7.17;86.68
7834;BME280;3962;42.696;23.354;2023-03-03T11:45:39;95050.13;;;7.17;85.31
7834;BME280;3962;42.696;23.354;2023-03-03T11:48:14;95044.28;;;7.23;85.81
7834;BME280;3962;42.696;23.354;2023-03-03T11:50:49;95040.53;;;7.25;86.57
7834;BME280;3962;42.696;23.354;2023-03-03T11:53:39;95038.97;;;7.23;86.49
7834;BME280;3962;42.696;23.354;2023-03-03T11:56:20;95042.59;;;7.22;88.10
7834;BME280;3962;42.696;23.354;2023-03-03T11:58:53;95041.28;;;7.07;89.16
7834;BME280;3962;42.696;23.354;2023-03-03T12:01:28;95042.06;;;6.98;88.83
7834;BME280;3962;42.696;23.354;2023-03-03T12:04:00;95038.91;;;7.04;88.84
7834;BME280;3962;42.696;23.354;2023-03-03T12:06:35;95041.19;;;7.18;89.66
7834;BME280;3962;42.696;23.354;2023-03-03T12:09:20;95032.91;;;7.41;89.27
7834;BME280;3962;42.696;23.354;2023-03-03T12:12:04;95038.41;;;7.19;87.57
7834;BME280;3962;42.696;23.354;2023-03-03T12:14:50;95044.16;;;7.24;88.84
7834;BME280;3962;42.696;23.354;2023-03-03T12:17:40;95035.84;;;7.38;87.89
7834;BME280;3962;42.696;23.354;2023-03-03T12:20:17;95039.31;;;7.39;88.45
7834;BME280;3962;42.696;23.354;2023-03-03T12:22:52;95036.38;;;7.32;89.50
7834;BME280;3962;42.696;23.354;2023-03-03T12:25:30;95044.94;;;7.45;89.35
7834;BME280;3962;42.696;23.354;2023-03-03T12:28:04;95036.66;;;7.39;87.91
7834;BME280;3962;42.696;23.354;2023-03-03T12:30:59;95038.94;;;7.53;88.96
7834;BME280;3962;42.696;23.354;2023-03-03T12:33:39;95034.50;;;7.53;88.62
7834;BME280;3962;42.696;23.354;2023-03-03T12:36:19;95039.44;;;7.67;88.84
7834;BME280;3962;42.696;23.354;2023-03-03T12:38:53;95039.81;;;7.63;88.38
7834;BME280;3962;42.696;23.354;2023-03-03T12:41:26;95042.00;;;7.48;88.81
7834;BME280;3962;42.696;23.354;2023-03-03T12:44:02;95046.91;;;7.23;87.66
7834;BME280;3962;42.696;23.354;2023-03-03T12:46:43;95047.19;;;7.20;89.92
7834;BME280;3962;42.696;23.354;2023-03-03T12:49:11;95046.38;;;6.99;90.29
7834;BME280;3962;42.696;23.354;2023-03-03T12:51:47;95048.78;;;7.02;90.46
7834;BME280;3962;42.696;23.354;2023-03-03T12:54:33;95048.50;;;7.05;91.58
7834;BME280;3962;42.696;23.354;2023-03-03T12:57:13;95041.38;;;6.96;91.95
7834;BME280;3962;42.696;23.354;2023-03-03T12:59:51;95051.50;;;6.91;92.64
7834;BME280;3962;42.696;23.354;2023-03-03T13:02:38;95049.06;;;6.79;91.76
7834;BME280;3962;42.696;23.354;2023-03-03T13:05:18;95048.84;;;6.61;92.63
7834;BME280;3962;42.696;23.354;2023-03-03T13:07:51;95042.31;;;6.45;93.19
7834;BME280;3962;42.696;23.354;2023-03-03T13:10:26;95042.63;;;6.31;93.76
7834;BME280;3962;42.696;23.354;2023-03-03T13:12:59;95045.13;;;6.32;93.82
7834;BME280;3962;42.696;23.354;2023-03-03T13:15:34;95043.50;;;6.41;93.95
7834;BME280;3962;42.696;23.354;2023-03-03T13:18:15;95039.09;;;6.41;93.51
7834;BME280;3962;42.696;23.354;2023-03-03T13:20:49;95038.97;;;6.43;93.45
7834;BME280;3962;42.696;23.354;2023-03-03T13:23:30;95044.06;;;6.55;94.07
7834;BME280;3962;42.696;23.354;2023-03-03T13:26:06;95037.50;;;6.80;94.12
7834;BME280;3962;42.696;23.354;2023-03-03T13:28:40;95037.06;;;6.95;94.65
7834;BME280;3962;42.696;23.354;2023-03-03T13:31:13;95031.09;;;7.03;94.52
7834;BME280;3962;42.696;23.354;2023-03-03T13:33:48;95031.75;;;6.95;92.73
7834;BME280;3962;42.696;23.354;2023-03-03T13:36:18;95037.94;;;7.05;91.29
7834;BME280;3962;42.696;23.354;2023-03-03T13:38:47;95040.28;;;7.28;90.71
7834;BME280;3962;42.696;23.354;2023-03-03T13:41:20;95032.66;;;7.44;90.68
7834;BME280;3962;42.696;23.354;2023-03-03T13:43:53;95029.81;;;7.27;88.40
7834;BME280;3962;42.696;23.354;2023-03-03T13:46:31;95031.38;;;7.00;90.77
7834;BME280;3962;42.696;23.354;2023-03-03T13:52:01;95027.28;;;6.86;92.88
7834;BME280;3962;42.696;23.354;2023-03-03T13:54:43;95028.88;;;6.78;92.99
7834;BME280;3962;42.696;23.354;2023-03-03T13:57:32;95030.34;;;6.61;92.90
7834;BME280;3962;42.696;23.354;2023-03-03T14:00:11;95026.31;;;6.67;93.62
7834;BME280;3962;42.696;23.354;2023-03-03T14:05:35;95033.41;;;6.66;93.65
7834;BME280;3962;42.696;23.354;2023-03-03T14:08:08;95035.06;;;6.67;93.48
7834;BME280;3962;42.696;23.354;2023-03-03T14:10:43;95032.59;;;6.66;94.31